sensor_id;sensor_type;location;lat;lon;timestamp;temperature;humidity
79010;DHT22;73031;44.726;37.760;2024-02-21T00:00:21;1.98;74.26
79010;DHT22;73031;44.726;37.760;2024-02-21T00:01:23;2.02;74.29
79010;DHT22;73031;44.726;37.760;2024-02-21T00:02:24;2.02;74.23
79010;DHT22;73031;44.726;37.760;2024-02-21T00:03:25;2.04;74.01
79010;DHT22;73031;44.726;37.760;2024-02-21T00:04:26;2.04;73.95
79010;DHT22;73031;44.726;37.760;2024-02-21T00:05:27;2.01;74.00
79010;DHT22;73031;44.726;37.760;2024-02-21T00:06:28;2.05;74.23
79010;DHT22;73031;44.726;37.760;2024-02-21T00:07:29;2.05;74.04
79010;DHT22;73031;44.726;37.760;2024-02-21T00:08:30;2.04;73.95
79010;DHT22;73031;44.726;37.760;2024-02-21T00:09:31;2.06;73.95
79010;DHT22;73031;44.726;37.760;2024-02-21T00:10:32;2.09;73.95
79010;DHT22;73031;44.726;37.760;2024-02-21T00:11:33;2.05;73.82
79010;DHT22;73031;44.726;37.760;2024-02-21T00:12:34;2.08;73.78
79010;DHT22;73031;44.726;37.760;2024-02-21T00:13:35;2.06;73.91
79010;DHT22;73031;44.726;37.760;2024-02-21T00:14:37;2.06;73.93
79010;DHT22;73031;44.726;37.760;2024-02-21T00:15:38;2.06;73.84
79010;DHT22;73031;44.726;37.760;2024-02-21T00:16:39;2.09;73.92
79010;DHT22;73031;44.726;37.760;2024-02-21T00:17:40;2.11;73.93
79010;DHT22;73031;44.726;37.760;2024-02-21T00:18:41;2.13;73.95
79010;DHT22;73031;44.726;37.760;2024-02-21T00:19:42;2.16;73.77
79010;DHT22;73031;44.726;37.760;2024-02-21T00:20:43;2.21;73.94
79010;DHT22;73031;44.726;37.760;2024-02-21T00:21:44;2.21;73.69
79010;DHT22;73031;44.726;37.760;2024-02-21T00:22:46;2.23;73.65
79010;DHT22;73031;44.726;37.760;2024-02-21T00:23:47;2.22;73.58
79010;DHT22;73031;44.726;37.760;2024-02-21T00:24:48;2.26;73.72
79010;DHT22;73031;44.726;37.760;2024-02-21T00:25:49;2.30;73.44
79010;DHT22;73031;44.726;37.760;2024-02-21T00:26:50;2.32;73.46
79010;DHT22;73031;44.726;37.760;2024-02-21T00:27:51;2.30;73.40
79010;DHT22;73031;44.726;37.760;2024-02-21T00:28:54;2.30;73.42
79010;DHT22;73031;44.726;37.760;2024-02-21T00:29:56;2.29;73.55
79010;DHT22;73031;44.726;37.760;2024-02-21T00:30:57;2.29;73.65
79010;DHT22;73031;44.726;37.760;2024-02-21T00:31:58;2.29;73.65
79010;DHT22;73031;44.726;37.760;2024-02-21T00:32:59;2.28;73.62
79010;DHT22;73031;44.726;37.760;2024-02-21T00:34:00;2.29;73.69
79010;DHT22;73031;44.726;37.760;2024-02-21T00:35:01;2.25;73.69
79010;DHT22;73031;44.726;37.760;2024-02-21T00:36:03;2.29;73.75
79010;DHT22;73031;44.726;37.760;2024-02-21T00:37:04;2.29;73.82
79010;DHT22;73031;44.726;37.760;2024-02-21T00:38:05;2.28;73.80
79010;DHT22;73031;44.726;37.760;2024-02-21T00:39:06;2.29;73.80
79010;DHT22;73031;44.726;37.760;2024-02-21T00:40:08;2.33;73.83
79010;DHT22;73031;44.726;37.760;2024-02-21T00:41:09;2.32;73.78
79010;DHT22;73031;44.726;37.760;2024-02-21T00:42:10;2.32;73.85
79010;DHT22;73031;44.726;37.760;2024-02-21T00:43:11;2.30;73.94
79010;DHT22;73031;44.726;37.760;2024-02-21T00:44:13;2.30;73.78
79010;DHT22;73031;44.726;37.760;2024-02-21T00:45:14;2.32;73.68
79010;DHT22;73031;44.726;37.760;2024-02-21T00:46:15;2.29;73.78
79010;DHT22;73031;44.726;37.760;2024-02-21T00:47:16;2.28;73.66
79010;DHT22;73031;44.726;37.760;2024-02-21T00:48:17;2.29;73.81
79010;DHT22;73031;44.726;37.760;2024-02-21T00:49:18;2.28;73.75
79010;DHT22;73031;44.726;37.760;2024-02-21T00:50:19;2.23;73.84
79010;DHT22;73031;44.726;37.760;2024-02-21T00:51:20;2.22;74.03
79010;DHT22;73031;44.726;37.760;2024-02-21T00:52:21;2.21;73.95
79010;DHT22;73031;44.726;37.760;2024-02-21T00:53:22;2.21;74.19
79010;DHT22;73031;44.726;37.760;2024-02-21T00:54:23;2.16;74.28
79010;DHT22;73031;44.726;37.760;2024-02-21T00:55:25;2.16;74.27
79010;DHT22;73031;44.726;37.760;2024-02-21T00:56:26;2.13;74.25
79010;DHT22;73031;44.726;37.760;2024-02-21T00:57:27;2.12;74.30
79010;DHT22;73031;44.726;37.760;2024-02-21T00:58:28;2.08;74.42
79010;DHT22;73031;44.726;37.760;2024-02-21T00:59:29;2.08;74.49
79010;DHT22;73031;44.726;37.760;2024-02-21T01:00:30;2.06;74.65
79010;DHT22;73031;44.726;37.760;2024-02-21T01:01:31;2.06;74.66
79010;DHT22;73031;44.726;37.760;2024-02-21T01:02:32;2.05;74.61
79010;DHT22;73031;44.726;37.760;2024-02-21T01:03:33;2.02;74.73
79010;DHT22;73031;44.726;37.760;2024-02-21T01:04:34;2.04;74.77
79010;DHT22;73031;44.726;37.760;2024-02-21T01:05:36;2.04;74.76
79010;DHT22;73031;44.726;37.760;2024-02-21T01:06:37;2.02;74.67
79010;DHT22;73031;44.726;37.760;2024-02-21T01:07:38;2.05;74.69
79010;DHT22;73031;44.726;37.760;2024-02-21T01:08:39;2.01;74.68
79010;DHT22;73031;44.726;37.760;2024-02-21T01:09:40;2.01;74.79
79010;DHT22;73031;44.726;37.760;2024-02-21T01:10:41;1.98;74.99
79010;DHT22;73031;44.726;37.760;2024-02-21T01:11:42;1.98;74.84
79010;DHT22;73031;44.726;37.760;2024-02-21T01:12:43;1.98;74.83
79010;DHT22;73031;44.726;37.760;2024-02-21T01:13:44;1.97;74.90
79010;DHT22;73031;44.726;37.760;2024-02-21T01:14:46;1.98;75.68
79010;DHT22;73031;44.726;37.760;2024-02-21T01:15:47;2.06;76.65
79010;DHT22;73031;44.726;37.760;2024-02-21T01:16:48;2.08;75.56
79010;DHT22;73031;44.726;37.760;2024-02-21T01:17:49;2.02;75.19
79010;DHT22;73031;44.726;37.760;2024-02-21T01:18:55;2.04;75.17
79010;DHT22;73031;44.726;37.760;2024-02-21T01:19:56;1.99;75.22
79010;DHT22;73031;44.726;37.760;2024-02-21T01:20:57;1.99;75.28
79010;DHT22;73031;44.726;37.760;2024-02-21T01:21:58;1.99;75.27
79010;DHT22;73031;44.726;37.760;2024-02-21T01:22:59;1.97;75.26
79010;DHT22;73031;44.726;37.760;2024-02-21T01:24:00;1.97;75.23
79010;DHT22;73031;44.726;37.760;2024-02-21T01:25:01;1.94;75.15
79010;DHT22;73031;44.726;37.760;2024-02-21T01:26:03;1.93;75.48
79010;DHT22;73031;44.726;37.760;2024-02-21T01:27:04;1.93;75.77
79010;DHT22;73031;44.726;37.760;2024-02-21T01:28:05;1.97;76.63
79010;DHT22;73031;44.726;37.760;2024-02-21T01:29:06;1.99;76.04
79010;DHT22;73031;44.726;37.760;2024-02-21T01:30:08;1.95;75.70
79010;DHT22;73031;44.726;37.760;2024-02-21T01:31:11;1.93;75.80
79010;DHT22;73031;44.726;37.760;2024-02-21T01:32:13;1.93;75.79
79010;DHT22;73031;44.726;37.760;2024-02-21T01:33:14;1.94;75.77
79010;DHT22;73031;44.726;37.760;2024-02-21T01:34:15;1.91;75.85
79010;DHT22;73031;44.726;37.760;2024-02-21T01:35:17;1.91;76.10
79010;DHT22;73031;44.726;37.760;2024-02-21T01:36:18;1.97;77.17
79010;DHT22;73031;44.726;37.760;2024-02-21T01:37:20;2.02;79.32
79010;DHT22;73031;44.726;37.760;2024-02-21T01:38:21;2.13;79.19
79010;DHT22;73031;44.726;37.760;2024-02-21T01:39:22;2.16;79.30
79010;DHT22;73031;44.726;37.760;2024-02-21T01:40:23;2.21;79.37
79010;DHT22;73031;44.726;37.760;2024-02-21T01:41:24;2.25;78.82
79010;DHT22;73031;44.726;37.760;2024-02-21T01:42:25;2.21;77.78
79010;DHT22;73031;44.726;37.760;2024-02-21T01:43:26;2.21;77.02
79010;DHT22;73031;44.726;37.760;2024-02-21T01:44:28;2.21;76.09
79010;DHT22;73031;44.726;37.760;2024-02-21T01:45:29;2.19;75.75
79010;DHT22;73031;44.726;37.760;2024-02-21T01:46:30;2.16;76.49
79010;DHT22;73031;44.726;37.760;2024-02-21T01:47:32;2.13;76.26
79010;DHT22;73031;44.726;37.760;2024-02-21T01:48:34;2.12;76.22
79010;DHT22;73031;44.726;37.760;2024-02-21T01:49:36;2.11;76.23
79010;DHT22;73031;44.726;37.760;2024-02-21T01:50:37;2.12;76.17
79010;DHT22;73031;44.726;37.760;2024-02-21T01:51:38;2.06;75.69
79010;DHT22;73031;44.726;37.760;2024-02-21T01:52:40;2.06;75.71
79010;DHT22;73031;44.726;37.760;2024-02-21T01:53:45;2.08;76.82
79010;DHT22;73031;44.726;37.760;2024-02-21T01:54:46;2.01;76.02
79010;DHT22;73031;44.726;37.760;2024-02-21T01:55:48;2.05;77.06
79010;DHT22;73031;44.726;37.760;2024-02-21T01:56:50;1.98;76.20
79010;DHT22;73031;44.726;37.760;2024-02-21T01:57:51;1.94;75.95
79010;DHT22;73031;44.726;37.760;2024-02-21T01:58:52;1.94;75.87
79010;DHT22;73031;44.726;37.760;2024-02-21T01:59:54;1.93;75.95
79010;DHT22;73031;44.726;37.760;2024-02-21T02:00:56;1.91;75.87
79010;DHT22;73031;44.726;37.760;2024-02-21T02:01:58;1.87;76.23
79010;DHT22;73031;44.726;37.760;2024-02-21T02:03:00;1.87;76.33
79010;DHT22;73031;44.726;37.760;2024-02-21T02:04:02;1.85;76.35
79010;DHT22;73031;44.726;37.760;2024-02-21T02:05:07;1.85;76.34
79010;DHT22;73031;44.726;37.760;2024-02-21T02:06:08;1.84;76.45
79010;DHT22;73031;44.726;37.760;2024-02-21T02:07:10;1.84;76.47
79010;DHT22;73031;44.726;37.760;2024-02-21T02:08:21;1.84;76.46
79010;DHT22;73031;44.726;37.760;2024-02-21T02:09:25;1.85;76.38
79010;DHT22;73031;44.726;37.760;2024-02-21T02:10:26;1.84;76.50
79010;DHT22;73031;44.726;37.760;2024-02-21T02:11:27;1.79;76.57
79010;DHT22;73031;44.726;37.760;2024-02-21T02:12:29;1.78;76.47
79010;DHT22;73031;44.726;37.760;2024-02-21T02:13:30;1.75;76.53
79010;DHT22;73031;44.726;37.760;2024-02-21T02:14:31;1.75;76.55
79010;DHT22;73031;44.726;37.760;2024-02-21T02:15:42;1.74;76.62
79010;DHT22;73031;44.726;37.760;2024-02-21T02:16:46;1.73;76.85
79010;DHT22;73031;44.726;37.760;2024-02-21T02:17:48;1.70;76.88
79010;DHT22;73031;44.726;37.760;2024-02-21T02:18:49;1.73;76.88
79010;DHT22;73031;44.726;37.760;2024-02-21T02:19:50;1.70;76.65
79010;DHT22;73031;44.726;37.760;2024-02-21T02:20:51;1.70;77.17
79010;DHT22;73031;44.726;37.760;2024-02-21T02:21:58;1.71;77.12
79010;DHT22;73031;44.726;37.760;2024-02-21T02:23:11;1.71;77.13
79010;DHT22;73031;44.726;37.760;2024-02-21T02:24:13;1.73;77.13
79010;DHT22;73031;44.726;37.760;2024-02-21T02:25:15;1.73;77.18
79010;DHT22;73031;44.726;37.760;2024-02-21T02:26:16;1.74;77.04
79010;DHT22;73031;44.726;37.760;2024-02-21T02:27:17;1.73;77.06
79010;DHT22;73031;44.726;37.760;2024-02-21T02:28:18;1.74;77.13
79010;DHT22;73031;44.726;37.760;2024-02-21T02:29:20;1.71;76.95
79010;DHT22;73031;44.726;37.760;2024-02-21T02:30:21;1.71;77.20
79010;DHT22;73031;44.726;37.760;2024-02-21T02:31:22;1.71;77.09
79010;DHT22;73031;44.726;37.760;2024-02-21T02:32:23;1.73;77.36
79010;DHT22;73031;44.726;37.760;2024-02-21T02:33:24;1.74;77.31
79010;DHT22;73031;44.726;37.760;2024-02-21T02:34:25;1.77;77.39
79010;DHT22;73031;44.726;37.760;2024-02-21T02:35:26;1.77;77.24
79010;DHT22;73031;44.726;37.760;2024-02-21T02:36:29;1.81;77.04
79010;DHT22;73031;44.726;37.760;2024-02-21T02:37:30;1.82;77.02
79010;DHT22;73031;44.726;37.760;2024-02-21T02:38:31;1.85;76.89
79010;DHT22;73031;44.726;37.760;2024-02-21T02:39:32;1.85;76.89
79010;DHT22;73031;44.726;37.760;2024-02-21T02:40:34;1.91;76.84
79010;DHT22;73031;44.726;37.760;2024-02-21T02:41:38;1.94;76.60
79010;DHT22;73031;44.726;37.760;2024-02-21T02:42:40;1.97;76.59
79010;DHT22;73031;44.726;37.760;2024-02-21T02:43:41;1.98;76.33
79010;DHT22;73031;44.726;37.760;2024-02-21T02:44:42;1.99;76.22
79010;DHT22;73031;44.726;37.760;2024-02-21T02:45:43;2.01;76.11
79010;DHT22;73031;44.726;37.760;2024-02-21T02:46:44;2.05;76.23
79010;DHT22;73031;44.726;37.760;2024-02-21T02:47:45;2.08;75.78
79010;DHT22;73031;44.726;37.760;2024-02-21T02:48:47;2.09;75.79
79010;DHT22;73031;44.726;37.760;2024-02-21T02:49:48;2.09;75.63
79010;DHT22;73031;44.726;37.760;2024-02-21T02:50:51;2.16;77.34
79010;DHT22;73031;44.726;37.760;2024-02-21T02:51:52;2.16;76.10
79010;DHT22;73031;44.726;37.760;2024-02-21T02:52:54;2.18;75.86
79010;DHT22;73031;44.726;37.760;2024-02-21T02:53:55;2.19;75.58
79010;DHT22;73031;44.726;37.760;2024-02-21T02:54:58;2.22;75.61
79010;DHT22;73031;44.726;37.760;2024-02-21T02:55:59;2.25;75.41
79010;DHT22;73031;44.726;37.760;2024-02-21T02:57:00;2.29;75.38
79010;DHT22;73031;44.726;37.760;2024-02-21T02:58:01;2.30;75.36
79010;DHT22;73031;44.726;37.760;2024-02-21T02:59:02;2.34;75.21
79010;DHT22;73031;44.726;37.760;2024-02-21T03:00:05;2.43;75.19
79010;DHT22;73031;44.726;37.760;2024-02-21T03:01:07;2.46;75.04
79010;DHT22;73031;44.726;37.760;2024-02-21T03:02:08;2.47;74.76
79010;DHT22;73031;44.726;37.760;2024-02-21T03:03:09;2.51;74.37
79010;DHT22;73031;44.726;37.760;2024-02-21T03:04:10;2.50;74.34
79010;DHT22;73031;44.726;37.760;2024-02-21T03:05:13;2.49;74.24
79010;DHT22;73031;44.726;37.760;2024-02-21T03:06:15;2.49;74.33
79010;DHT22;73031;44.726;37.760;2024-02-21T03:07:16;2.47;74.33
79010;DHT22;73031;44.726;37.760;2024-02-21T03:08:18;2.47;74.27
79010;DHT22;73031;44.726;37.760;2024-02-21T03:09:19;2.49;74.34
79010;DHT22;73031;44.726;37.760;2024-02-21T03:10:20;2.51;74.22
79010;DHT22;73031;44.726;37.760;2024-02-21T03:11:21;2.56;74.24
79010;DHT22;73031;44.726;37.760;2024-02-21T03:12:29;2.61;74.21
79010;DHT22;73031;44.726;37.760;2024-02-21T03:13:30;2.64;73.91
79010;DHT22;73031;44.726;37.760;2024-02-21T03:14:32;2.68;73.92
79010;DHT22;73031;44.726;37.760;2024-02-21T03:15:33;2.71;73.68
79010;DHT22;73031;44.726;37.760;2024-02-21T03:16:34;2.74;73.51
79010;DHT22;73031;44.726;37.760;2024-02-21T03:17:35;2.80;73.59
79010;DHT22;73031;44.726;37.760;2024-02-21T03:18:36;2.81;73.35
79010;DHT22;73031;44.726;37.760;2024-02-21T03:19:37;2.84;72.87
79010;DHT22;73031;44.726;37.760;2024-02-21T03:20:39;2.84;72.91
79010;DHT22;73031;44.726;37.760;2024-02-21T03:21:40;2.85;72.77
79010;DHT22;73031;44.726;37.760;2024-02-21T03:22:41;2.87;72.50
79010;DHT22;73031;44.726;37.760;2024-02-21T03:23:42;2.84;72.53
79010;DHT22;73031;44.726;37.760;2024-02-21T03:24:44;2.81;72.54
79010;DHT22;73031;44.726;37.760;2024-02-21T03:25:45;2.81;72.81
79010;DHT22;73031;44.726;37.760;2024-02-21T03:26:46;2.77;72.87
79010;DHT22;73031;44.726;37.760;2024-02-21T03:27:51;2.76;72.82
79010;DHT22;73031;44.726;37.760;2024-02-21T03:28:52;2.80;72.95
79010;DHT22;73031;44.726;37.760;2024-02-21T03:29:53;2.78;72.92
79010;DHT22;73031;44.726;37.760;2024-02-21T03:30:54;2.80;72.91
79010;DHT22;73031;44.726;37.760;2024-02-21T03:31:55;2.81;72.97
79010;DHT22;73031;44.726;37.760;2024-02-21T03:32:56;2.84;72.86
79010;DHT22;73031;44.726;37.760;2024-02-21T03:33:57;2.84;73.09
79010;DHT22;73031;44.726;37.760;2024-02-21T03:34:59;2.85;72.97
79010;DHT22;73031;44.726;37.760;2024-02-21T03:36:00;2.89;72.86
79010;DHT22;73031;44.726;37.760;2024-02-21T03:37:01;2.92;72.65
79010;DHT22;73031;44.726;37.760;2024-02-21T03:38:03;2.87;72.70
79010;DHT22;73031;44.726;37.760;2024-02-21T03:39:04;2.85;72.60
79010;DHT22;73031;44.726;37.760;2024-02-21T03:40:11;2.85;72.70
79010;DHT22;73031;44.726;37.760;2024-02-21T03:41:12;2.84;72.68
79010;DHT22;73031;44.726;37.760;2024-02-21T03:42:13;2.84;72.67
79010;DHT22;73031;44.726;37.760;2024-02-21T03:43:15;2.84;72.57
79010;DHT22;73031;44.726;37.760;2024-02-21T03:44:16;2.85;72.74
79010;DHT22;73031;44.726;37.760;2024-02-21T03:45:17;2.85;72.81
79010;DHT22;73031;44.726;37.760;2024-02-21T03:46:18;2.84;72.86
79010;DHT22;73031;44.726;37.760;2024-02-21T03:47:19;2.83;72.86
79010;DHT22;73031;44.726;37.760;2024-02-21T03:48:20;2.78;73.00
79010;DHT22;73031;44.726;37.760;2024-02-21T03:49:22;2.78;73.43
79010;DHT22;73031;44.726;37.760;2024-02-21T03:50:23;2.81;74.28
79010;DHT22;73031;44.726;37.760;2024-02-21T03:51:24;2.81;74.26
79010;DHT22;73031;44.726;37.760;2024-02-21T03:52:26;2.80;74.99
79010;DHT22;73031;44.726;37.760;2024-02-21T03:53:27;2.76;74.46
79010;DHT22;73031;44.726;37.760;2024-02-21T03:54:28;2.71;74.33
79010;DHT22;73031;44.726;37.760;2024-02-21T03:55:30;2.71;73.89
79010;DHT22;73031;44.726;37.760;2024-02-21T03:56:31;2.67;73.81
79010;DHT22;73031;44.726;37.760;2024-02-21T03:57:32;2.62;74.07
79010;DHT22;73031;44.726;37.760;2024-02-21T03:58:33;2.58;73.97
79010;DHT22;73031;44.726;37.760;2024-02-21T03:59:34;2.57;74.06
79010;DHT22;73031;44.726;37.760;2024-02-21T04:00:35;2.53;74.03
79010;DHT22;73031;44.726;37.760;2024-02-21T04:01:37;2.51;74.09
79010;DHT22;73031;44.726;37.760;2024-02-21T04:02:38;2.46;74.16
79010;DHT22;73031;44.726;37.760;2024-02-21T04:03:39;2.47;75.28
79010;DHT22;73031;44.726;37.760;2024-02-21T04:04:45;2.46;75.38
79010;DHT22;73031;44.726;37.760;2024-02-21T04:05:47;2.40;74.78
79010;DHT22;73031;44.726;37.760;2024-02-21T04:06:49;2.33;75.64
79010;DHT22;73031;44.726;37.760;2024-02-21T04:07:50;2.29;75.53
79010;DHT22;73031;44.726;37.760;2024-02-21T04:08:52;2.25;75.58
79010;DHT22;73031;44.726;37.760;2024-02-21T04:09:53;2.21;75.27
79010;DHT22;73031;44.726;37.760;2024-02-21T04:10:54;2.19;75.39
79010;DHT22;73031;44.726;37.760;2024-02-21T04:11:55;2.21;75.33
79010;DHT22;73031;44.726;37.760;2024-02-21T04:12:56;2.16;75.43
79010;DHT22;73031;44.726;37.760;2024-02-21T04:13:58;2.11;75.36
79010;DHT22;73031;44.726;37.760;2024-02-21T04:14:59;2.09;75.57
79010;DHT22;73031;44.726;37.760;2024-02-21T04:16:00;2.12;75.72
79010;DHT22;73031;44.726;37.760;2024-02-21T04:17:02;2.12;75.70
79010;DHT22;73031;44.726;37.760;2024-02-21T04:18:03;2.09;75.54
79010;DHT22;73031;44.726;37.760;2024-02-21T04:19:04;2.09;75.49
79010;DHT22;73031;44.726;37.760;2024-02-21T04:20:05;2.08;75.74
79010;DHT22;73031;44.726;37.760;2024-02-21T04:21:09;2.08;75.53
79010;DHT22;73031;44.726;37.760;2024-02-21T04:22:10;2.02;75.54
79010;DHT22;73031;44.726;37.760;2024-02-21T04:23:11;2.02;75.80
79010;DHT22;73031;44.726;37.760;2024-02-21T04:24:12;1.99;75.86
79010;DHT22;73031;44.726;37.760;2024-02-21T04:25:15;1.95;75.68
79010;DHT22;73031;44.726;37.760;2024-02-21T04:26:16;1.97;75.79
79010;DHT22;73031;44.726;37.760;2024-02-21T04:27:17;1.94;75.90
79010;DHT22;73031;44.726;37.760;2024-02-21T04:28:19;1.93;76.07
79010;DHT22;73031;44.726;37.760;2024-02-21T04:29:20;1.91;76.22
79010;DHT22;73031;44.726;37.760;2024-02-21T04:30:21;1.91;76.30
79010;DHT22;73031;44.726;37.760;2024-02-21T04:31:22;1.93;76.34
79010;DHT22;73031;44.726;37.760;2024-02-21T04:32:23;1.94;76.33
79010;DHT22;73031;44.726;37.760;2024-02-21T04:33:24;1.93;76.36
79010;DHT22;73031;44.726;37.760;2024-02-21T04:34:25;1.94;76.22
79010;DHT22;73031;44.726;37.760;2024-02-21T04:35:27;1.94;76.10
79010;DHT22;73031;44.726;37.760;2024-02-21T04:36:28;1.93;75.98
79010;DHT22;73031;44.726;37.760;2024-02-21T04:37:29;1.94;75.84
79010;DHT22;73031;44.726;37.760;2024-02-21T04:38:31;1.95;75.90
79010;DHT22;73031;44.726;37.760;2024-02-21T04:39:32;1.98;76.29
79010;DHT22;73031;44.726;37.760;2024-02-21T04:40:33;2.13;75.73
79010;DHT22;73031;44.726;37.760;2024-02-21T04:41:34;2.32;75.33
79010;DHT22;73031;44.726;37.760;2024-02-21T04:42:36;2.39;74.72
79010;DHT22;73031;44.726;37.760;2024-02-21T04:43:37;2.58;75.68
79010;DHT22;73031;44.726;37.760;2024-02-21T04:44:38;2.78;74.83
79010;DHT22;73031;44.726;37.760;2024-02-21T04:45:39;2.99;75.46
79010;DHT22;73031;44.726;37.760;2024-02-21T04:46:42;3.09;74.41
79010;DHT22;73031;44.726;37.760;2024-02-21T04:47:43;3.08;73.38
79010;DHT22;73031;44.726;37.760;2024-02-21T04:48:45;3.09;72.67
79010;DHT22;73031;44.726;37.760;2024-02-21T04:49:47;3.13;72.55
79010;DHT22;73031;44.726;37.760;2024-02-21T04:50:48;3.19;71.86
79010;DHT22;73031;44.726;37.760;2024-02-21T04:51:49;3.26;71.65
79010;DHT22;73031;44.726;37.760;2024-02-21T04:52:50;3.37;71.37
79010;DHT22;73031;44.726;37.760;2024-02-21T04:53:51;3.51;70.95
79010;DHT22;73031;44.726;37.760;2024-02-21T04:54:52;3.71;70.46
79010;DHT22;73031;44.726;37.760;2024-02-21T04:55:53;3.84;69.62
79010;DHT22;73031;44.726;37.760;2024-02-21T04:56:55;4.03;69.07
79010;DHT22;73031;44.726;37.760;2024-02-21T04:57:56;4.17;68.49
79010;DHT22;73031;44.726;37.760;2024-02-21T04:58:57;4.32;67.96
79010;DHT22;73031;44.726;37.760;2024-02-21T04:59:58;4.41;67.39
79010;DHT22;73031;44.726;37.760;2024-02-21T05:00:59;4.51;66.89
79010;DHT22;73031;44.726;37.760;2024-02-21T05:02:00;4.71;66.34
79010;DHT22;73031;44.726;37.760;2024-02-21T05:03:01;5.08;65.07
79010;DHT22;73031;44.726;37.760;2024-02-21T05:04:02;5.33;64.13
79010;DHT22;73031;44.726;37.760;2024-02-21T05:05:04;5.48;64.47
79010;DHT22;73031;44.726;37.760;2024-02-21T05:06:06;5.91;62.66
79010;DHT22;73031;44.726;37.760;2024-02-21T05:07:08;6.24;61.44
79010;DHT22;73031;44.726;37.760;2024-02-21T05:08:11;6.33;60.76
79010;DHT22;73031;44.726;37.760;2024-02-21T05:09:12;6.24;60.55
79010;DHT22;73031;44.726;37.760;2024-02-21T05:10:13;6.67;61.04
79010;DHT22;73031;44.726;37.760;2024-02-21T05:11:14;6.92;58.86
79010;DHT22;73031;44.726;37.760;2024-02-21T05:12:16;6.88;58.54
79010;DHT22;73031;44.726;37.760;2024-02-21T05:13:17;7.03;58.72
79010;DHT22;73031;44.726;37.760;2024-02-21T05:14:18;7.35;57.32
79010;DHT22;73031;44.726;37.760;2024-02-21T05:15:20;7.55;57.23
79010;DHT22;73031;44.726;37.760;2024-02-21T05:16:21;7.52;55.79
79010;DHT22;73031;44.726;37.760;2024-02-21T05:17:22;7.46;56.97
79010;DHT22;73031;44.726;37.760;2024-02-21T05:18:23;7.61;56.88
79010;DHT22;73031;44.726;37.760;2024-02-21T05:19:24;7.89;55.86
79010;DHT22;73031;44.726;37.760;2024-02-21T05:20:25;8.42;53.75
79010;DHT22;73031;44.726;37.760;2024-02-21T05:21:26;8.37;54.89
79010;DHT22;73031;44.726;37.760;2024-02-21T05:22:29;8.41;54.92
79010;DHT22;73031;44.726;37.760;2024-02-21T05:23:30;8.51;54.35
79010;DHT22;73031;44.726;37.760;2024-02-21T05:24:31;8.73;53.95
79010;DHT22;73031;44.726;37.760;2024-02-21T05:25:32;9.45;51.42
79010;DHT22;73031;44.726;37.760;2024-02-21T05:26:33;9.35;52.82
79010;DHT22;73031;44.726;37.760;2024-02-21T05:27:34;9.86;52.21
79010;DHT22;73031;44.726;37.760;2024-02-21T05:28:36;10.07;51.50
79010;DHT22;73031;44.726;37.760;2024-02-21T05:29:37;11.07;48.52
79010;DHT22;73031;44.726;37.760;2024-02-21T05:30:38;11.81;46.75
79010;DHT22;73031;44.726;37.760;2024-02-21T05:32:51;12.09;44.70
79010;DHT22;73031;44.726;37.760;2024-02-21T05:33:53;12.59;43.42
79010;DHT22;73031;44.726;37.760;2024-02-21T05:34:54;13.23;43.24
79010;DHT22;73031;44.726;37.760;2024-02-21T05:35:55;13.57;44.12
79010;DHT22;73031;44.726;37.760;2024-02-21T05:36:56;13.48;43.08
79010;DHT22;73031;44.726;37.760;2024-02-21T05:38:00;13.44;42.39
79010;DHT22;73031;44.726;37.760;2024-02-21T05:39:02;13.26;42.86
79010;DHT22;73031;44.726;37.760;2024-02-21T05:40:03;13.09;42.95
79010;DHT22;73031;44.726;37.760;2024-02-21T05:41:05;13.11;42.40
79010;DHT22;73031;44.726;37.760;2024-02-21T05:42:07;13.47;42.10
79010;DHT22;73031;44.726;37.760;2024-02-21T05:43:08;13.38;41.65
79010;DHT22;73031;44.726;37.760;2024-02-21T05:44:10;13.13;39.52
79010;DHT22;73031;44.726;37.760;2024-02-21T05:45:11;12.78;41.28
79010;DHT22;73031;44.726;37.760;2024-02-21T05:46:13;12.54;40.94
79010;DHT22;73031;44.726;37.760;2024-02-21T05:47:14;12.49;41.43
79010;DHT22;73031;44.726;37.760;2024-02-21T05:48:16;12.42;41.59
79010;DHT22;73031;44.726;37.760;2024-02-21T05:49:17;12.91;42.00
79010;DHT22;73031;44.726;37.760;2024-02-21T05:50:18;13.17;41.89
79010;DHT22;73031;44.726;37.760;2024-02-21T05:51:19;13.21;40.09
79010;DHT22;73031;44.726;37.760;2024-02-21T05:52:21;13.00;39.78
79010;DHT22;73031;44.726;37.760;2024-02-21T05:53:23;12.82;40.79
79010;DHT22;73031;44.726;37.760;2024-02-21T05:54:24;12.71;39.76
79010;DHT22;73031;44.726;37.760;2024-02-21T05:55:25;12.76;40.50
79010;DHT22;73031;44.726;37.760;2024-02-21T05:56:26;12.97;39.43
79010;DHT22;73031;44.726;37.760;2024-02-21T05:57:27;12.89;39.65
79010;DHT22;73031;44.726;37.760;2024-02-21T05:58:28;12.88;40.01
79010;DHT22;73031;44.726;37.760;2024-02-21T05:59:32;12.88;39.84
79010;DHT22;73031;44.726;37.760;2024-02-21T06:00:33;12.93;40.81
79010;DHT22;73031;44.726;37.760;2024-02-21T06:01:34;12.96;40.71
79010;DHT22;73031;44.726;37.760;2024-02-21T06:02:35;12.96;38.96
79010;DHT22;73031;44.726;37.760;2024-02-21T06:03:36;12.82;39.29
79010;DHT22;73031;44.726;37.760;2024-02-21T06:04:38;12.79;39.27
79010;DHT22;73031;44.726;37.760;2024-02-21T06:05:40;12.91;39.19
79010;DHT22;73031;44.726;37.760;2024-02-21T06:06:41;12.86;38.45
79010;DHT22;73031;44.726;37.760;2024-02-21T06:07:43;12.92;39.41
79010;DHT22;73031;44.726;37.760;2024-02-21T06:08:44;12.96;39.50
79010;DHT22;73031;44.726;37.760;2024-02-21T06:09:46;13.02;37.94
79010;DHT22;73031;44.726;37.760;2024-02-21T06:10:47;12.97;38.20
79010;DHT22;73031;44.726;37.760;2024-02-21T06:11:55;12.76;38.01
79010;DHT22;73031;44.726;37.760;2024-02-21T06:12:56;12.68;37.75
79010;DHT22;73031;44.726;37.760;2024-02-21T06:13:57;12.65;38.18
79010;DHT22;73031;44.726;37.760;2024-02-21T06:14:58;12.61;38.40
79010;DHT22;73031;44.726;37.760;2024-02-21T06:16:00;12.68;39.02
79010;DHT22;73031;44.726;37.760;2024-02-21T06:17:01;12.91;38.96
79010;DHT22;73031;44.726;37.760;2024-02-21T06:18:02;13.03;39.00
79010;DHT22;73031;44.726;37.760;2024-02-21T06:19:03;13.31;37.93
79010;DHT22;73031;44.726;37.760;2024-02-21T06:20:05;13.40;37.49
79010;DHT22;73031;44.726;37.760;2024-02-21T06:21:06;13.40;36.63
79010;DHT22;73031;44.726;37.760;2024-02-21T06:22:07;13.74;35.88
79010;DHT22;73031;44.726;37.760;2024-02-21T06:23:09;13.87;36.58
79010;DHT22;73031;44.726;37.760;2024-02-21T06:24:10;14.99;35.74
79010;DHT22;73031;44.726;37.760;2024-02-21T06:25:13;16.48;32.33
79010;DHT22;73031;44.726;37.760;2024-02-21T06:26:15;17.03;32.34
79010;DHT22;73031;44.726;37.760;2024-02-21T06:27:16;18.22;31.06
79010;DHT22;73031;44.726;37.760;2024-02-21T06:28:18;19.43;28.99